sensor_id;sensor_type;location;lat;lon;timestamp;P1;durP1;ratioP1;P2;durP2;ratioP2
30127;SDS011;16942;53.196;6.592;2023-03-16T00:01:05;6.37;;;2.03;;
30127;SDS011;16942;53.196;6.592;2023-03-16T00:03:31;5.67;;;2.00;;
30127;SDS011;16942;53.196;6.592;2023-03-16T00:05:57;4.30;;;2.00;;
30127;SDS011;16942;53.196;6.592;2023-03-16T00:08:23;7.67;;;2.30;;
30127;SDS011;16942;53.196;6.592;2023-03-16T00:10:49;6.33;;;1.80;;
30127;SDS011;16942;53.196;6.592;2023-03-16T00:13:18;5.80;;;2.07;;
30127;SDS011;16942;53.196;6.592;2023-03-16T00:15:55;6.50;;;2.00;;
30127;SDS011;16942;53.196;6.592;2023-03-16T00:18:21;6.27;;;2.03;;
30127;SDS011;16942;53.196;6.592;2023-03-16T00:20:51;5.87;;;2.37;;
30127;SDS011;16942;53.196;6.592;2023-03-16T00:23:18;6.33;;;2.23;;
30127;SDS011;16942;53.196;6.592;2023-03-16T00:25:51;4.33;;;2.10;;
30127;SDS011;16942;53.196;6.592;2023-03-16T00:28:17;6.57;;;2.50;;
30127;SDS011;16942;53.196;6.592;2023-03-16T00:30:43;5.87;;;2.40;;
30127;SDS011;16942;53.196;6.592;2023-03-16T00:33:11;5.57;;;1.97;;
30127;SDS011;16942;53.196;6.592;2023-03-16T00:35:37;3.67;;;2.00;;
30127;SDS011;16942;53.196;6.592;2023-03-16T00:38:03;12.97;;;2.10;;
30127;SDS011;16942;53.196;6.592;2023-03-16T00:40:29;6.23;;;1.80;;
30127;SDS011;16942;53.196;6.592;2023-03-16T00:42:57;6.87;;;2.23;;
30127;SDS011;16942;53.196;6.592;2023-03-16T00:45:23;5.20;;;1.87;;
30127;SDS011;16942;53.196;6.592;2023-03-16T00:47:49;5.97;;;1.90;;
30127;SDS011;16942;53.196;6.592;2023-03-16T00:50:18;4.07;;;1.90;;
30127;SDS011;16942;53.196;6.592;2023-03-16T00:52:46;5.60;;;1.83;;
30127;SDS011;16942;53.196;6.592;2023-03-16T00:55:12;4.77;;;1.90;;
30127;SDS011;16942;53.196;6.592;2023-03-16T00:57:38;5.80;;;2.00;;
30127;SDS011;16942;53.196;6.592;2023-03-16T01:00:04;5.67;;;2.20;;
30127;SDS011;16942;53.196;6.592;2023-03-16T01:02:39;4.83;;;2.07;;
30127;SDS011;16942;53.196;6.592;2023-03-16T01:05:05;6.30;;;2.20;;
30127;SDS011;16942;53.196;6.592;2023-03-16T01:07:31;4.40;;;2.17;;
30127;SDS011;16942;53.196;6.592;2023-03-16T01:10:00;4.73;;;2.10;;
30127;SDS011;16942;53.196;6.592;2023-03-16T01:12:26;6.03;;;2.40;;
30127;SDS011;16942;53.196;6.592;2023-03-16T01:14:52;4.07;;;2.43;;
30127;SDS011;16942;53.196;6.592;2023-03-16T01:17:19;3.70;;;2.13;;
30127;SDS011;16942;53.196;6.592;2023-03-16T01:19:47;8.43;;;2.20;;
30127;SDS011;16942;53.196;6.592;2023-03-16T01:22:13;5.37;;;2.40;;
30127;SDS011;16942;53.196;6.592;2023-03-16T01:24:40;4.40;;;2.27;;
30127;SDS011;16942;53.196;6.592;2023-03-16T01:27:06;3.93;;;2.10;;
30127;SDS011;16942;53.196;6.592;2023-03-16T01:29:33;7.57;;;2.63;;
30127;SDS011;16942;53.196;6.592;2023-03-16T01:31:59;4.77;;;2.30;;
30127;SDS011;16942;53.196;6.592;2023-03-16T01:34:26;6.93;;;2.13;;
30127;SDS011;16942;53.196;6.592;2023-03-16T01:36:52;6.03;;;2.50;;
30127;SDS011;16942;53.196;6.592;2023-03-16T01:39:19;4.40;;;2.30;;
30127;SDS011;16942;53.196;6.592;2023-03-16T01:41:45;7.57;;;2.83;;
30127;SDS011;16942;53.196;6.592;2023-03-16T01:44:12;11.43;;;2.47;;
30127;SDS011;16942;53.196;6.592;2023-03-16T01:46:39;5.50;;;2.40;;
30127;SDS011;16942;53.196;6.592;2023-03-16T01:49:28;8.20;;;2.30;;
30127;SDS011;16942;53.196;6.592;2023-03-16T01:51:54;5.93;;;2.73;;
30127;SDS011;16942;53.196;6.592;2023-03-16T01:59:33;10.43;;;3.00;;
30127;SDS011;16942;53.196;6.592;2023-03-16T02:02:00;6.53;;;2.83;;
30127;SDS011;16942;53.196;6.592;2023-03-16T02:06:56;5.80;;;2.70;;
30127;SDS011;16942;53.196;6.592;2023-03-16T02:09:22;6.00;;;2.60;;
30127;SDS011;16942;53.196;6.592;2023-03-16T02:11:48;8.43;;;3.27;;
30127;SDS011;16942;53.196;6.592;2023-03-16T02:14:15;5.67;;;2.83;;
30127;SDS011;16942;53.196;6.592;2023-03-16T02:16:41;5.63;;;2.93;;
30127;SDS011;16942;53.196;6.592;2023-03-16T02:19:08;7.83;;;3.37;;
30127;SDS011;16942;53.196;6.592;2023-03-16T02:21:50;4.90;;;2.97;;
30127;SDS011;16942;53.196;6.592;2023-03-16T02:24:18;8.97;;;2.90;;
30127;SDS011;16942;53.196;6.592;2023-03-16T02:26:46;7.87;;;3.37;;
30127;SDS011;16942;53.196;6.592;2023-03-16T02:29:19;6.83;;;3.63;;
30127;SDS011;16942;53.196;6.592;2023-03-16T02:31:49;8.13;;;3.27;;
30127;SDS011;16942;53.196;6.592;2023-03-16T02:34:16;8.90;;;3.13;;
30127;SDS011;16942;53.196;6.592;2023-03-16T02:36:43;8.00;;;3.47;;
30127;SDS011;16942;53.196;6.592;2023-03-16T02:39:10;9.00;;;4.30;;
30127;SDS011;16942;53.196;6.592;2023-03-16T02:41:36;6.57;;;3.60;;
30127;SDS011;16942;53.196;6.592;2023-03-16T02:44:11;5.80;;;3.43;;
30127;SDS011;16942;53.196;6.592;2023-03-16T02:46:39;9.33;;;3.30;;
30127;SDS011;16942;53.196;6.592;2023-03-16T02:49:11;7.23;;;3.50;;
30127;SDS011;16942;53.196;6.592;2023-03-16T02:51:40;8.03;;;3.47;;
30127;SDS011;16942;53.196;6.592;2023-03-16T02:54:06;11.73;;;3.73;;
30127;SDS011;16942;53.196;6.592;2023-03-16T02:56:32;6.53;;;3.47;;
30127;SDS011;16942;53.196;6.592;2023-03-16T02:58:58;7.40;;;3.20;;
30127;SDS011;16942;53.196;6.592;2023-03-16T03:01:25;5.67;;;3.23;;
30127;SDS011;16942;53.196;6.592;2023-03-16T03:03:51;6.67;;;3.00;;
30127;SDS011;16942;53.196;6.592;2023-03-16T03:06:17;5.50;;;3.07;;
30127;SDS011;16942;53.196;6.592;2023-03-16T03:08:43;5.47;;;2.73;;
30127;SDS011;16942;53.196;6.592;2023-03-16T03:11:09;5.13;;;3.40;;
30127;SDS011;16942;53.196;6.592;2023-03-16T03:13:35;7.57;;;3.47;;
30127;SDS011;16942;53.196;6.592;2023-03-16T03:16:04;7.27;;;3.50;;
30127;SDS011;16942;53.196;6.592;2023-03-16T03:18:30;5.90;;;3.07;;
30127;SDS011;16942;53.196;6.592;2023-03-16T03:20:56;5.13;;;2.90;;
30127;SDS011;16942;53.196;6.592;2023-03-16T03:23:22;7.10;;;2.93;;
30127;SDS011;16942;53.196;6.592;2023-03-16T03:25:48;5.53;;;3.00;;
30127;SDS011;16942;53.196;6.592;2023-03-16T03:28:14;6.37;;;2.97;;
30127;SDS011;16942;53.196;6.592;2023-03-16T03:30:40;7.07;;;3.53;;
30127;SDS011;16942;53.196;6.592;2023-03-16T03:33:06;4.27;;;3.00;;
30127;SDS011;16942;53.196;6.592;2023-03-16T03:35:32;7.33;;;3.00;;
30127;SDS011;16942;53.196;6.592;2023-03-16T03:37:58;8.60;;;3.40;;
30127;SDS011;16942;53.196;6.592;2023-03-16T03:40:24;5.47;;;3.33;;
30127;SDS011;16942;53.196;6.592;2023-03-16T03:42:50;5.90;;;3.03;;
30127;SDS011;16942;53.196;6.592;2023-03-16T03:45:16;6.20;;;2.77;;
30127;SDS011;16942;53.196;6.592;2023-03-16T03:47:42;5.50;;;2.90;;
30127;SDS011;16942;53.196;6.592;2023-03-16T03:50:09;5.67;;;2.87;;
30127;SDS011;16942;53.196;6.592;2023-03-16T03:52:35;7.77;;;3.03;;
30127;SDS011;16942;53.196;6.592;2023-03-16T03:55:01;7.93;;;3.30;;
30127;SDS011;16942;53.196;6.592;2023-03-16T03:57:27;5.60;;;2.73;;
30127;SDS011;16942;53.196;6.592;2023-03-16T03:59:53;7.00;;;3.20;;
30127;SDS011;16942;53.196;6.592;2023-03-16T04:02:19;7.47;;;2.83;;
30127;SDS011;16942;53.196;6.592;2023-03-16T04:04:45;7.73;;;2.87;;
30127;SDS011;16942;53.196;6.592;2023-03-16T04:07:11;7.30;;;3.13;;
30127;SDS011;16942;53.196;6.592;2023-03-16T04:09:37;7.33;;;3.20;;
30127;SDS011;16942;53.196;6.592;2023-03-16T04:12:04;5.90;;;3.83;;
30127;SDS011;16942;53.196;6.592;2023-03-16T04:14:30;5.17;;;2.70;;
30127;SDS011;16942;53.196;6.592;2023-03-16T04:16:57;6.03;;;2.63;;
30127;SDS011;16942;53.196;6.592;2023-03-16T04:19:23;9.60;;;3.37;;
30127;SDS011;16942;53.196;6.592;2023-03-16T04:21:50;7.07;;;2.63;;
30127;SDS011;16942;53.196;6.592;2023-03-16T04:24:16;7.80;;;3.00;;
30127;SDS011;16942;53.196;6.592;2023-03-16T04:26:45;4.30;;;3.03;;
30127;SDS011;16942;53.196;6.592;2023-03-16T04:29:11;5.50;;;3.20;;
30127;SDS011;16942;53.196;6.592;2023-03-16T04:31:38;10.07;;;3.17;;
30127;SDS011;16942;53.196;6.592;2023-03-16T04:34:05;7.60;;;3.40;;
30127;SDS011;16942;53.196;6.592;2023-03-16T04:36:31;4.90;;;2.87;;
30127;SDS011;16942;53.196;6.592;2023-03-16T04:38:57;6.70;;;2.90;;
30127;SDS011;16942;53.196;6.592;2023-03-16T04:41:23;4.97;;;3.00;;
30127;SDS011;16942;53.196;6.592;2023-03-16T04:43:50;8.47;;;3.70;;
30127;SDS011;16942;53.196;6.592;2023-03-16T04:46:16;8.17;;;3.30;;
30127;SDS011;16942;53.196;6.592;2023-03-16T04:48:42;4.23;;;2.97;;
30127;SDS011;16942;53.196;6.592;2023-03-16T04:51:08;5.60;;;3.10;;
30127;SDS011;16942;53.196;6.592;2023-03-16T04:53:34;9.80;;;3.33;;
30127;SDS011;16942;53.196;6.592;2023-03-16T04:56:00;5.37;;;3.13;;
30127;SDS011;16942;53.196;6.592;2023-03-16T04:58:28;5.80;;;3.20;;
30127;SDS011;16942;53.196;6.592;2023-03-16T05:00:54;6.90;;;3.10;;
30127;SDS011;16942;53.196;6.592;2023-03-16T05:03:20;11.73;;;3.30;;
30127;SDS011;16942;53.196;6.592;2023-03-16T05:05:47;4.47;;;3.30;;
30127;SDS011;16942;53.196;6.592;2023-03-16T05:08:13;5.93;;;3.00;;
30127;SDS011;16942;53.196;6.592;2023-03-16T05:10:39;8.37;;;3.37;;
30127;SDS011;16942;53.196;6.592;2023-03-16T05:13:06;7.70;;;3.47;;
30127;SDS011;16942;53.196;6.592;2023-03-16T05:15:32;10.27;;;3.23;;
30127;SDS011;16942;53.196;6.592;2023-03-16T05:17:58;8.40;;;3.47;;
30127;SDS011;16942;53.196;6.592;2023-03-16T05:20:24;9.70;;;4.10;;
30127;SDS011;16942;53.196;6.592;2023-03-16T05:22:50;8.37;;;3.50;;
30127;SDS011;16942;53.196;6.592;2023-03-16T05:25:17;8.07;;;3.03;;
30127;SDS011;16942;53.196;6.592;2023-03-16T05:27:43;5.70;;;2.83;;
30127;SDS011;16942;53.196;6.592;2023-03-16T05:30:10;6.13;;;3.67;;
30127;SDS011;16942;53.196;6.592;2023-03-16T05:32:37;5.50;;;3.47;;
30127;SDS011;16942;53.196;6.592;2023-03-16T05:35:03;8.17;;;3.63;;
30127;SDS011;16942;53.196;6.592;2023-03-16T05:37:29;6.53;;;3.30;;
30127;SDS011;16942;53.196;6.592;2023-03-16T05:39:56;9.77;;;4.00;;
30127;SDS011;16942;53.196;6.592;2023-03-16T05:42:22;8.97;;;2.90;;
30127;SDS011;16942;53.196;6.592;2023-03-16T05:44:50;9.97;;;4.03;;
30127;SDS011;16942;53.196;6.592;2023-03-16T05:47:16;7.77;;;2.97;;
30127;SDS011;16942;53.196;6.592;2023-03-16T05:49:42;5.90;;;3.87;;
30127;SDS011;16942;53.196;6.592;2023-03-16T05:52:09;9.67;;;4.27;;
30127;SDS011;16942;53.196;6.592;2023-03-16T05:54:35;7.00;;;3.60;;
30127;SDS011;16942;53.196;6.592;2023-03-16T05:57:01;7.83;;;3.60;;
30127;SDS011;16942;53.196;6.592;2023-03-16T05:59:27;6.83;;;3.73;;
30127;SDS011;16942;53.196;6.592;2023-03-16T06:01:53;7.17;;;3.53;;
30127;SDS011;16942;53.196;6.592;2023-03-16T06:04:19;6.57;;;3.40;;
30127;SDS011;16942;53.196;6.592;2023-03-16T06:06:45;7.30;;;3.40;;
30127;SDS011;16942;53.196;6.592;2023-03-16T06:09:11;7.47;;;3.53;;
30127;SDS011;16942;53.196;6.592;2023-03-16T06:11:37;6.77;;;3.47;;
30127;SDS011;16942;53.196;6.592;2023-03-16T06:14:03;6.10;;;3.33;;
30127;SDS011;16942;53.196;6.592;2023-03-16T06:16:29;6.37;;;3.70;;
30127;SDS011;16942;53.196;6.592;2023-03-16T06:18:55;8.63;;;3.20;;
30127;SDS011;16942;53.196;6.592;2023-03-16T06:21:22;6.80;;;4.00;;
30127;SDS011;16942;53.196;6.592;2023-03-16T06:23:48;6.97;;;3.47;;
30127;SDS011;16942;53.196;6.592;2023-03-16T06:26:14;8.20;;;3.67;;
30127;SDS011;16942;53.196;6.592;2023-03-16T06:28:40;6.13;;;3.43;;
30127;SDS011;16942;53.196;6.592;2023-03-16T06:31:07;7.90;;;4.00;;
30127;SDS011;16942;53.196;6.592;2023-03-16T06:33:33;5.43;;;3.30;;
30127;SDS011;16942;53.196;6.592;2023-03-16T06:35:59;10.87;;;3.40;;
30127;SDS011;16942;53.196;6.592;2023-03-16T06:38:25;5.40;;;3.57;;
30127;SDS011;16942;53.196;6.592;2023-03-16T06:40:52;10.80;;;3.97;;
30127;SDS011;16942;53.196;6.592;2023-03-16T06:43:18;8.70;;;3.57;;
30127;SDS011;16942;53.196;6.592;2023-03-16T06:45:44;6.10;;;3.50;;
30127;SDS011;16942;53.196;6.592;2023-03-16T06:48:10;5.47;;;3.30;;
30127;SDS011;16942;53.196;6.592;2023-03-16T06:50:36;6.50;;;3.60;;
30127;SDS011;16942;53.196;6.592;2023-03-16T06:53:02;7.30;;;4.23;;
30127;SDS011;16942;53.196;6.592;2023-03-16T06:55:28;7.07;;;3.40;;
30127;SDS011;16942;53.196;6.592;2023-03-16T06:57:54;7.87;;;3.70;;
30127;SDS011;16942;53.196;6.592;2023-03-16T07:00:20;5.63;;;3.30;;
30127;SDS011;16942;53.196;6.592;2023-03-16T07:02:46;4.43;;;3.13;;
30127;SDS011;16942;53.196;6.592;2023-03-16T07:05:12;7.77;;;3.67;;
30127;SDS011;16942;53.196;6.592;2023-03-16T07:07:39;7.13;;;3.57;;
30127;SDS011;16942;53.196;6.592;2023-03-16T07:10:07;5.93;;;3.23;;
30127;SDS011;16942;53.196;6.592;2023-03-16T07:12:34;4.73;;;3.30;;
30127;SDS011;16942;53.196;6.592;2023-03-16T07:15:00;6.33;;;3.50;;
30127;SDS011;16942;53.196;6.592;2023-03-16T07:17:26;6.60;;;3.90;;
30127;SDS011;16942;53.196;6.592;2023-03-16T07:19:52;10.07;;;3.77;;
30127;SDS011;16942;53.196;6.592;2023-03-16T07:22:18;8.87;;;3.60;;
30127;SDS011;16942;53.196;6.592;2023-03-16T07:24:46;11.23;;;3.63;;
30127;SDS011;16942;53.196;6.592;2023-03-16T07:27:16;5.17;;;3.53;;
30127;SDS011;16942;53.196;6.592;2023-03-16T07:29:42;6.97;;;3.50;;
30127;SDS011;16942;53.196;6.592;2023-03-16T07:32:08;8.77;;;3.70;;
30127;SDS011;16942;53.196;6.592;2023-03-16T07:34:34;3.90;;;3.03;;
30127;SDS011;16942;53.196;6.592;2023-03-16T07:37:00;6.07;;;3.40;;
30127;SDS011;16942;53.196;6.592;2023-03-16T07:39:26;7.23;;;2.97;;
30127;SDS011;16942;53.196;6.592;2023-03-16T07:41:52;7.93;;;3.27;;
30127;SDS011;16942;53.196;6.592;2023-03-16T07:44:18;6.03;;;2.80;;
30127;SDS011;16942;53.196;6.592;2023-03-16T07:46:44;7.70;;;2.97;;
30127;SDS011;16942;53.196;6.592;2023-03-16T07:49:10;11.07;;;3.80;;
30127;SDS011;16942;53.196;6.592;2023-03-16T07:51:37;4.57;;;3.03;;
30127;SDS011;16942;53.196;6.592;2023-03-16T07:54:03;3.97;;;3.00;;
30127;SDS011;16942;53.196;6.592;2023-03-16T07:56:29;6.20;;;3.10;;
30127;SDS011;16942;53.196;6.592;2023-03-16T07:58:55;6.53;;;3.50;;
30127;SDS011;16942;53.196;6.592;2023-03-16T08:01:21;7.67;;;3.27;;
30127;SDS011;16942;53.196;6.592;2023-03-16T08:03:48;6.17;;;3.20;;
30127;SDS011;16942;53.196;6.592;2023-03-16T08:06:14;3.80;;;2.97;;
30127;SDS011;16942;53.196;6.592;2023-03-16T08:08:40;5.57;;;3.37;;
30127;SDS011;16942;53.196;6.592;2023-03-16T08:11:07;6.73;;;3.40;;
30127;SDS011;16942;53.196;6.592;2023-03-16T08:13:32;8.73;;;3.53;;
30127;SDS011;16942;53.196;6.592;2023-03-16T08:15:59;6.80;;;3.07;;
30127;SDS011;16942;53.196;6.592;2023-03-16T08:18:26;4.90;;;2.97;;
30127;SDS011;16942;53.196;6.592;2023-03-16T08:20:54;7.70;;;3.37;;
30127;SDS011;16942;53.196;6.592;2023-03-16T08:23:20;5.23;;;2.87;;
30127;SDS011;16942;53.196;6.592;2023-03-16T08:25:57;11.17;;;5.10;;
30127;SDS011;16942;53.196;6.592;2023-03-16T08:28:23;6.93;;;3.57;;
30127;SDS011;16942;53.196;6.592;2023-03-16T08:30:50;8.27;;;3.60;;
30127;SDS011;16942;53.196;6.592;2023-03-16T08:33:17;6.10;;;3.40;;
30127;SDS011;16942;53.196;6.592;2023-03-16T08:35:44;7.77;;;3.97;;
30127;SDS011;16942;53.196;6.592;2023-03-16T08:38:11;6.17;;;3.33;;
30127;SDS011;16942;53.196;6.592;2023-03-16T08:40:38;4.57;;;3.30;;
30127;SDS011;16942;53.196;6.592;2023-03-16T08:43:06;5.47;;;3.23;;
30127;SDS011;16942;53.196;6.592;2023-03-16T08:45:32;7.23;;;3.40;;
30127;SDS011;16942;53.196;6.592;2023-03-16T08:47:58;4.77;;;3.57;;
30127;SDS011;16942;53.196;6.592;2023-03-16T08:50:25;8.43;;;3.17;;
30127;SDS011;16942;53.196;6.592;2023-03-16T08:52:52;4.87;;;3.20;;
30127;SDS011;16942;53.196;6.592;2023-03-16T08:55:18;6.40;;;3.03;;
30127;SDS011;16942;53.196;6.592;2023-03-16T08:57:44;4.87;;;3.10;;
30127;SDS011;16942;53.196;6.592;2023-03-16T09:00:12;4.00;;;3.10;;
30127;SDS011;16942;53.196;6.592;2023-03-16T09:02:40;6.57;;;2.83;;
30127;SDS011;16942;53.196;6.592;2023-03-16T09:05:07;11.20;;;4.70;;
30127;SDS011;16942;53.196;6.592;2023-03-16T09:07:33;7.00;;;3.30;;
30127;SDS011;16942;53.196;6.592;2023-03-16T09:10:00;7.20;;;3.60;;
30127;SDS011;16942;53.196;6.592;2023-03-16T09:12:26;5.37;;;3.23;;
30127;SDS011;16942;53.196;6.592;2023-03-16T09:14:52;6.90;;;3.40;;
30127;SDS011;16942;53.196;6.592;2023-03-16T09:17:19;7.20;;;3.60;;
30127;SDS011;16942;53.196;6.592;2023-03-16T09:19:45;6.03;;;3.43;;
30127;SDS011;16942;53.196;6.592;2023-03-16T09:22:11;5.97;;;3.43;;
30127;SDS011;16942;53.196;6.592;2023-03-16T09:24:37;10.33;;;3.53;;
30127;SDS011;16942;53.196;6.592;2023-03-16T09:27:04;5.13;;;3.40;;
30127;SDS011;16942;53.196;6.592;2023-03-16T09:29:30;7.73;;;3.73;;
30127;SDS011;16942;53.196;6.592;2023-03-16T09:31:57;6.33;;;3.80;;
30127;SDS011;16942;53.196;6.592;2023-03-16T09:34:23;6.47;;;3.57;;
30127;SDS011;16942;53.196;6.592;2023-03-16T09:36:49;5.60;;;4.00;;
30127;SDS011;16942;53.196;6.592;2023-03-16T09:39:17;6.93;;;3.57;;
30127;SDS011;16942;53.196;6.592;2023-03-16T09:41:49;6.90;;;3.20;;
30127;SDS011;16942;53.196;6.592;2023-03-16T09:47:13;8.13;;;4.40;;
30127;SDS011;16942;53.196;6.592;2023-03-16T09:49:47;5.07;;;3.23;;
30127;SDS011;16942;53.196;6.592;2023-03-16T09:57:40;6.07;;;3.33;;
30127;SDS011;16942;53.196;6.592;2023-03-16T10:05:08;6.17;;;3.27;;
30127;SDS011;16942;53.196;6.592;2023-03-16T10:12:34;6.97;;;3.53;;
30127;SDS011;16942;53.196;6.592;2023-03-16T10:15:07;6.13;;;3.23;;
30127;SDS011;16942;53.196;6.592;2023-03-16T10:17:43;8.60;;;3.47;;
30127;SDS011;16942;53.196;6.592;2023-03-16T10:20:14;5.97;;;3.83;;
30127;SDS011;16942;53.196;6.592;2023-03-16T10:22:42;8.13;;;4.03;;
30127;SDS011;16942;53.196;6.592;2023-03-16T10:27:47;6.13;;;4.10;;
30127;SDS011;16942;53.196;6.592;2023-03-16T10:30:25;10.20;;;4.63;;
30127;SDS011;16942;53.196;6.592;2023-03-16T10:32:52;7.90;;;4.00;;
30127;SDS011;16942;53.196;6.592;2023-03-16T10:37:51;5.40;;;3.60;;
30127;SDS011;16942;53.196;6.592;2023-03-16T10:40:17;5.57;;;3.33;;
30127;SDS011;16942;53.196;6.592;2023-03-16T10:42:44;7.93;;;4.33;;
30127;SDS011;16942;53.196;6.592;2023-03-16T10:45:18;7.63;;;3.80;;
30127;SDS011;16942;53.196;6.592;2023-03-16T10:47:45;10.07;;;3.97;;
30127;SDS011;16942;53.196;6.592;2023-03-16T10:50:11;9.03;;;3.87;;
30127;SDS011;16942;53.196;6.592;2023-03-16T10:52:44;13.87;;;5.07;;
30127;SDS011;16942;53.196;6.592;2023-03-16T10:55:28;7.73;;;3.93;;
30127;SDS011;16942;53.196;6.592;2023-03-16T10:57:58;10.63;;;4.10;;
30127;SDS011;16942;53.196;6.592;2023-03-16T11:02:52;7.10;;;3.90;;
30127;SDS011;16942;53.196;6.592;2023-03-16T11:10:33;8.77;;;3.67;;
30127;SDS011;16942;53.196;6.592;2023-03-16T11:13:00;10.40;;;3.80;;
30127;SDS011;16942;53.196;6.592;2023-03-16T11:15:27;9.67;;;3.97;;
30127;SDS011;16942;53.196;6.592;2023-03-16T11:17:58;7.57;;;3.60;;
30127;SDS011;16942;53.196;6.592;2023-03-16T11:20:26;6.33;;;3.60;;
30127;SDS011;16942;53.196;6.592;2023-03-16T11:22:52;6.57;;;3.90;;
30127;SDS011;16942;53.196;6.592;2023-03-16T11:30:40;10.80;;;4.63;;
30127;SDS011;16942;53.196;6.592;2023-03-16T11:33:08;8.07;;;3.90;;
30127;SDS011;16942;53.196;6.592;2023-03-16T11:38:12;7.10;;;4.00;;
30127;SDS011;16942;53.196;6.592;2023-03-16T11:45:43;8.43;;;3.97;;
30127;SDS011;16942;53.196;6.592;2023-03-16T11:48:20;4.20;;;3.03;;
30127;SDS011;16942;53.196;6.592;2023-03-16T11:51:03;7.80;;;3.73;;
30127;SDS011;16942;53.196;6.592;2023-03-16T11:56:00;5.80;;;3.37;;
30127;SDS011;16942;53.196;6.592;2023-03-16T12:01:06;6.07;;;3.23;;
30127;SDS011;16942;53.196;6.592;2023-03-16T12:06:24;4.20;;;2.83;;
30127;SDS011;16942;53.196;6.592;2023-03-16T12:11:29;8.80;;;2.90;;
30127;SDS011;16942;53.196;6.592;2023-03-16T12:14:04;6.00;;;2.73;;
30127;SDS011;16942;53.196;6.592;2023-03-16T12:19:06;4.87;;;2.80;;
30127;SDS011;16942;53.196;6.592;2023-03-16T12:21:42;5.70;;;3.13;;
30127;SDS011;16942;53.196;6.592;2023-03-16T12:24:13;5.80;;;2.70;;
30127;SDS011;16942;53.196;6.592;2023-03-16T12:26:41;9.27;;;3.17;;
30127;SDS011;16942;53.196;6.592;2023-03-16T12:31:53;4.87;;;3.07;;
30127;SDS011;16942;53.196;6.592;2023-03-16T12:35:12;7.17;;;3.57;;
30127;SDS011;16942;53.196;6.592;2023-03-16T12:40:01;4.57;;;2.80;;
30127;SDS011;16942;53.196;6.592;2023-03-16T12:45:16;5.33;;;2.93;;
30127;SDS011;16942;53.196;6.592;2023-03-16T12:47:55;6.20;;;2.87;;
30127;SDS011;16942;53.196;6.592;2023-03-16T12:50:23;7.17;;;2.70;;
30127;SDS011;16942;53.196;6.592;2023-03-16T12:52:50;4.67;;;2.77;;
30127;SDS011;16942;53.196;6.592;2023-03-16T12:57:47;5.57;;;2.97;;
30127;SDS011;16942;53.196;6.592;2023-03-16T13:00:14;5.00;;;2.70;;
30127;SDS011;16942;53.196;6.592;2023-03-16T13:02:41;6.47;;;2.70;;
30127;SDS011;16942;53.196;6.592;2023-03-16T13:07:44;4.63;;;2.90;;
30127;SDS011;16942;53.196;6.592;2023-03-16T13:10:11;4.43;;;2.93;;
30127;SDS011;16942;53.196;6.592;2023-03-16T13:12:38;3.90;;;2.80;;
30127;SDS011;16942;53.196;6.592;2023-03-16T13:17:48;5.43;;;3.27;;
30127;SDS011;16942;53.196;6.592;2023-03-16T13:25:17;8.03;;;2.73;;
30127;SDS011;16942;53.196;6.592;2023-03-16T13:27:46;6.17;;;2.80;;
30127;SDS011;16942;53.196;6.592;2023-03-16T13:32:42;5.73;;;3.20;;
30127;SDS011;16942;53.196;6.592;2023-03-16T13:35:12;10.27;;;4.03;;
30127;SDS011;16942;53.196;6.592;2023-03-16T13:37:39;4.27;;;3.00;;
30127;SDS011;16942;53.196;6.592;2023-03-16T13:40:21;5.97;;;2.50;;
30127;SDS011;16942;53.196;6.592;2023-03-16T13:42:48;7.03;;;3.13;;
30127;SDS011;16942;53.196;6.592;2023-03-16T13:45:19;5.47;;;2.50;;
30127;SDS011;16942;53.196;6.592;2023-03-16T13:47:46;3.00;;;2.43;;
30127;SDS011;16942;53.196;6.592;2023-03-16T13:50:13;4.10;;;3.10;;
30127;SDS011;16942;53.196;6.592;2023-03-16T13:52:40;7.13;;;3.43;;
30127;SDS011;16942;53.196;6.592;2023-03-16T13:55:15;7.43;;;3.47;;
30127;SDS011;16942;53.196;6.592;2023-03-16T13:57:42;4.33;;;2.90;;
30127;SDS011;16942;53.196;6.592;2023-03-16T14:00:19;4.60;;;2.97;;
30127;SDS011;16942;53.196;6.592;2023-03-16T14:02:47;3.77;;;2.70;;
30127;SDS011;16942;53.196;6.592;2023-03-16T14:05:17;4.73;;;2.60;;
30127;SDS011;16942;53.196;6.592;2023-03-16T14:07:47;3.90;;;2.47;;
30127;SDS011;16942;53.196;6.592;2023-03-16T14:10:15;4.53;;;2.93;;
30127;SDS011;16942;53.196;6.592;2023-03-16T14:12:51;6.47;;;2.70;;
30127;SDS011;16942;53.196;6.592;2023-03-16T14:15:17;4.90;;;3.07;;
30127;SDS011;16942;53.196;6.592;2023-03-16T14:17:44;4.50;;;3.07;;
30127;SDS011;16942;53.196;6.592;2023-03-16T14:20:16;5.53;;;3.13;;
30127;SDS011;16942;53.196;6.592;2023-03-16T14:22:43;6.90;;;2.83;;
30127;SDS011;16942;53.196;6.592;2023-03-16T14:25:09;4.40;;;2.87;;
30127;SDS011;16942;53.196;6.592;2023-03-16T14:27:42;4.80;;;3.60;;
30127;SDS011;16942;53.196;6.592;2023-03-16T14:32:39;9.53;;;4.37;;
30127;SDS011;16942;53.196;6.592;2023-03-16T14:37:38;6.80;;;3.43;;
30127;SDS011;16942;53.196;6.592;2023-03-16T14:40:27;4.97;;;3.10;;
30127;SDS011;16942;53.196;6.592;2023-03-16T14:42:53;11.93;;;4.47;;
30127;SDS011;16942;53.196;6.592;2023-03-16T14:45:20;7.53;;;3.23;;
30127;SDS011;16942;53.196;6.592;2023-03-16T14:47:47;3.80;;;2.77;;
30127;SDS011;16942;53.196;6.592;2023-03-16T14:50:22;6.90;;;3.10;;
30127;SDS011;16942;53.196;6.592;2023-03-16T14:52:49;5.03;;;3.00;;
30127;SDS011;16942;53.196;6.592;2023-03-16T14:55:17;5.10;;;2.97;;
30127;SDS011;16942;53.196;6.592;2023-03-16T14:57:44;9.87;;;3.07;;
30127;SDS011;16942;53.196;6.592;2023-03-16T15:00:14;6.77;;;3.33;;
30127;SDS011;16942;53.196;6.592;2023-03-16T15:02:41;5.27;;;2.63;;
30127;SDS011;16942;53.196;6.592;2023-03-16T15:05:08;7.90;;;3.97;;
30127;SDS011;16942;53.196;6.592;2023-03-16T15:07:36;3.73;;;2.63;;
30127;SDS011;16942;53.196;6.592;2023-03-16T15:10:08;5.57;;;3.20;;
30127;SDS011;16942;53.196;6.592;2023-03-16T15:12:41;5.00;;;2.80;;
30127;SDS011;16942;53.196;6.592;2023-03-16T15:15:15;5.90;;;3.00;;
30127;SDS011;16942;53.196;6.592;2023-03-16T15:17:42;4.70;;;2.93;;
30127;SDS011;16942;53.196;6.592;2023-03-16T15:20:11;5.70;;;2.93;;
30127;SDS011;16942;53.196;6.592;2023-03-16T15:22:37;5.77;;;3.00;;
30127;SDS011;16942;53.196;6.592;2023-03-16T15:27:36;10.20;;;3.03;;
30127;SDS011;16942;53.196;6.592;2023-03-16T15:30:04;4.53;;;2.40;;
30127;SDS011;16942;53.196;6.592;2023-03-16T15:32:31;4.83;;;2.90;;
30127;SDS011;16942;53.196;6.592;2023-03-16T15:34:57;5.83;;;2.80;;
30127;SDS011;16942;53.196;6.592;2023-03-16T15:37:23;5.33;;;3.00;;
30127;SDS011;16942;53.196;6.592;2023-03-16T15:39:51;6.73;;;2.57;;
30127;SDS011;16942;53.196;6.592;2023-03-16T15:42:18;4.20;;;2.90;;
30127;SDS011;16942;53.196;6.592;2023-03-16T15:44:44;8.27;;;3.57;;
30127;SDS011;16942;53.196;6.592;2023-03-16T15:47:11;8.03;;;3.00;;
30127;SDS011;16942;53.196;6.592;2023-03-16T15:49:37;3.93;;;2.37;;
30127;SDS011;16942;53.196;6.592;2023-03-16T15:52:04;6.33;;;2.70;;
30127;SDS011;16942;53.196;6.592;2023-03-16T15:54:31;4.37;;;2.67;;
30127;SDS011;16942;53.196;6.592;2023-03-16T15:56:58;6.07;;;2.60;;
30127;SDS011;16942;53.196;6.592;2023-03-16T15:59:24;6.47;;;2.50;;
30127;SDS011;16942;53.196;6.592;2023-03-16T16:01:51;7.50;;;2.70;;
30127;SDS011;16942;53.196;6.592;2023-03-16T16:04:18;5.80;;;2.53;;
30127;SDS011;16942;53.196;6.592;2023-03-16T16:06:45;8.30;;;3.00;;
30127;SDS011;16942;53.196;6.592;2023-03-16T16:09:11;7.47;;;2.93;;
30127;SDS011;16942;53.196;6.592;2023-03-16T16:11:37;6.10;;;2.97;;
30127;SDS011;16942;53.196;6.592;2023-03-16T16:14:05;5.93;;;3.03;;
30127;SDS011;16942;53.196;6.592;2023-03-16T16:16:33;5.20;;;2.67;;
30127;SDS011;16942;53.196;6.592;2023-03-16T16:19:01;4.37;;;2.47;;
30127;SDS011;16942;53.196;6.592;2023-03-16T16:21:27;3.70;;;2.60;;
30127;SDS011;16942;53.196;6.592;2023-03-16T16:23:55;8.73;;;3.37;;
30127;SDS011;16942;53.196;6.592;2023-03-16T16:28:47;6.07;;;2.37;;